Austin, Kentucky
Current Conditions -  °F | °C
As of 4:35 AM on Sunday 23 Nov 2014 (Local Time) from KGLW Reporting Station
Broken Clouds Broken Clouds  
Wind Chill: 53°   Ceiling: 5000
Heat Index: 53°   Visibility: 10mi
Dew Point: 39°   Wind: 5mph
Humidity: 60%   Direction: 140°SE
Pressure: 29.96"   Gusts: NA
Location:  36.83°N, 86.02°W
Report Text: KGLW 231035Z AUTO 14004KT 10SM SCT047 BKN050 12/04 A2996 RMK AO2 T01160040
Loading
Personal Weather Stations






























Interactive Weather Map New forecast layout! Learn more

10-Day Weather Forecast

Advertisements
Track Severe Weather on mobile